createdAt,value
2022-11-05T00:19:11.363Z,2.20
2022-11-05T00:49:36.641Z,1.90
2022-11-05T01:19:48.681Z,2.10
2022-11-05T01:50:06.801Z,3.00
2022-11-05T02:20:38.575Z,2.33
2022-11-05T02:50:54.898Z,2.07
2022-11-05T03:21:08.426Z,1.77
2022-11-05T03:51:24.096Z,2.40
2022-11-05T04:21:45.230Z,1.97
2022-11-05T04:51:53.738Z,2.17
2022-11-05T05:22:10.065Z,4.03
2022-11-05T05:52:18.561Z,4.33
2022-11-05T06:22:27.764Z,6.50
2022-11-05T06:52:41.926Z,4.13
2022-11-05T07:22:51.303Z,4.97
2022-11-05T07:53:03.690Z,7.47
2022-11-05T08:23:13.917Z,8.50
2022-11-05T08:53:23.058Z,10.13
2022-11-05T09:23:31.440Z,14.83
2022-11-05T09:53:48.006Z,12.47
2022-11-05T10:23:57.034Z,13.97
2022-11-05T10:54:15.878Z,20.73
2022-11-05T11:24:30.966Z,21.33
2022-11-05T11:54:48.955Z,11.80
2022-11-05T12:25:19.448Z,16.97
2022-11-05T12:55:30.569Z,21.53
2022-11-05T13:25:49.218Z,24.33
2022-11-05T13:56:08.022Z,18.30
2022-11-05T14:26:25.491Z,22.03
2022-11-05T14:56:54.936Z,20.77
2022-11-05T15:27:13.218Z,17.50
2022-11-05T15:57:35.942Z,24.07
2022-11-05T16:27:51.565Z,32.57
2022-11-05T16:58:00.194Z,20.83
2022-11-05T17:28:13.529Z,15.90
2022-11-05T17:58:22.587Z,35.73
2022-11-05T18:28:38.207Z,23.57
2022-11-05T18:58:50.565Z,37.63
2022-11-05T19:29:01.981Z,36.07
2022-11-05T19:59:15.594Z,79.37
2022-11-05T20:29:33.695Z,42.97
2022-11-05T20:59:43.738Z,47.70
2022-11-05T21:29:53.760Z,41.23
2022-11-05T22:00:08.015Z,35.47
2022-11-05T22:30:20.474Z,36.90
2022-11-05T23:00:40.010Z,38.03
2022-11-05T23:31:19.721Z,25.17
